createdAt,value
2022-10-18T00:02:07.888Z,14.40
2022-10-18T00:04:34.849Z,14.38
2022-10-18T00:07:01.386Z,14.38
2022-10-18T00:09:29.433Z,14.39
2022-10-18T00:11:56.516Z,14.35
2022-10-18T00:14:23.110Z,14.32
2022-10-18T00:16:49.669Z,14.30
2022-10-18T00:19:16.186Z,14.31
2022-10-18T00:24:14.710Z,14.27
2022-10-18T00:26:42.642Z,14.25
2022-10-18T00:29:14.234Z,14.22
2022-10-18T00:31:41.220Z,14.20
2022-10-18T00:34:11.311Z,14.17
2022-10-18T00:36:37.893Z,14.16
2022-10-18T00:39:07.142Z,14.16
2022-10-18T00:41:36.270Z,14.14
2022-10-18T00:44:06.004Z,14.13
2022-10-18T00:46:34.597Z,14.10
2022-10-18T00:49:04.290Z,14.11
2022-10-18T00:51:36.147Z,14.09
2022-10-18T00:54:02.963Z,14.09
2022-10-18T00:56:29.967Z,14.06
2022-10-18T00:58:57.315Z,14.05
2022-10-18T01:01:28.282Z,14.06
2022-10-18T01:03:56.542Z,14.06
2022-10-18T01:06:23.667Z,14.05
2022-10-18T01:09:01.144Z,14.04
2022-10-18T01:11:47.722Z,14.02
2022-10-18T01:14:24.635Z,14.01
2022-10-18T01:16:59.033Z,14.00
2022-10-18T01:19:53.143Z,13.98
2022-10-18T01:22:24.219Z,13.97
2022-10-18T01:25:06.730Z,13.96
2022-10-18T01:27:45.185Z,13.95
2022-10-18T01:30:43.262Z,13.94
2022-10-18T01:33:22.614Z,13.93
2022-10-18T01:35:53.661Z,13.96
2022-10-18T01:38:22.197Z,13.95
2022-10-18T01:40:51.064Z,13.95
2022-10-18T01:43:19.799Z,13.94
2022-10-18T01:45:48.643Z,13.92
2022-10-18T01:48:16.677Z,13.90
2022-10-18T01:50:43.204Z,13.88
2022-10-18T01:53:30.975Z,13.87
2022-10-18T01:56:24.036Z,13.87
2022-10-18T01:59:02.623Z,13.84
2022-10-18T02:01:38.756Z,13.83
2022-10-18T02:04:10.692Z,13.82
2022-10-18T02:06:44.716Z,13.82
2022-10-18T02:09:18.037Z,13.84
2022-10-18T02:11:48.037Z,13.82
2022-10-18T02:14:18.627Z,13.82
2022-10-18T02:16:50.943Z,13.81
2022-10-18T02:21:58.843Z,13.82
2022-10-18T02:24:31.708Z,13.83
2022-10-18T02:26:58.308Z,13.83
2022-10-18T02:29:24.942Z,13.83
2022-10-18T02:31:56.779Z,13.84
2022-10-18T02:34:27.611Z,13.87
2022-10-18T02:36:57.623Z,13.88
2022-10-18T02:39:29.651Z,13.90
2022-10-18T02:41:57.495Z,13.91
2022-10-18T02:44:24.303Z,13.91
2022-10-18T02:46:51.189Z,13.92
2022-10-18T02:49:19.152Z,13.91
2022-10-18T02:51:45.633Z,13.90
2022-10-18T02:54:12.281Z,13.88
2022-10-18T02:56:38.778Z,13.88
2022-10-18T02:59:05.396Z,13.87
2022-10-18T03:01:32.047Z,13.86
2022-10-18T03:03:58.595Z,13.85
2022-10-18T03:06:26.667Z,13.87
2022-10-18T03:08:53.243Z,13.85
2022-10-18T03:11:20.321Z,13.87
2022-10-18T03:13:46.828Z,13.83
2022-10-18T03:16:13.356Z,13.83
2022-10-18T03:18:39.872Z,13.82
2022-10-18T03:21:07.108Z,13.81
2022-10-18T03:23:35.263Z,13.81
2022-10-18T03:26:02.021Z,13.81
2022-10-18T03:28:28.583Z,13.80
2022-10-18T03:31:00.023Z,13.80
2022-10-18T03:33:26.565Z,13.78
2022-10-18T03:35:53.119Z,13.79
2022-10-18T03:38:19.617Z,13.76
2022-10-18T03:40:47.486Z,13.75
2022-10-18T03:43:14.178Z,13.72
2022-10-18T03:45:40.701Z,13.69
2022-10-18T03:48:07.277Z,13.69
2022-10-18T03:50:33.795Z,13.66
2022-10-18T03:53:00.410Z,13.63
2022-10-18T03:55:27.136Z,13.62
2022-10-18T03:57:54.987Z,13.60
2022-10-18T04:00:21.588Z,13.59
2022-10-18T04:02:51.954Z,13.58
2022-10-18T04:05:21.677Z,13.57
2022-10-18T04:07:48.176Z,13.56
2022-10-18T04:10:14.826Z,13.52
2022-10-18T04:12:41.420Z,13.50
2022-10-18T04:15:10.608Z,13.50
2022-10-18T04:17:37.226Z,13.48
2022-10-18T04:20:04.359Z,13.47
2022-10-18T04:22:30.952Z,13.48
2022-10-18T04:24:57.462Z,13.47
2022-10-18T04:27:24.273Z,13.46
2022-10-18T04:29:50.809Z,13.48
2022-10-18T04:32:18.757Z,13.49
2022-10-18T04:34:45.306Z,13.48
2022-10-18T04:37:11.924Z,13.47
2022-10-18T04:39:38.452Z,13.47
2022-10-18T04:42:05.042Z,13.45
2022-10-18T04:44:31.567Z,13.43
2022-10-18T04:46:58.062Z,13.41
2022-10-18T04:49:25.894Z,13.39
2022-10-18T04:51:52.450Z,13.40
2022-10-18T04:54:18.948Z,13.35
2022-10-18T04:56:45.612Z,13.35
2022-10-18T04:59:12.114Z,13.34
2022-10-18T05:01:38.831Z,13.30
2022-10-18T05:04:05.510Z,13.30
2022-10-18T05:06:33.503Z,13.28
2022-10-18T05:09:00.080Z,13.25
2022-10-18T05:11:26.587Z,13.25
2022-10-18T05:13:53.159Z,13.26
2022-10-18T05:16:19.912Z,13.24
2022-10-18T05:18:46.605Z,13.23
2022-10-18T05:21:13.338Z,13.22
2022-10-18T05:23:41.163Z,13.22
2022-10-18T05:26:08.930Z,13.20
2022-10-18T05:28:40.526Z,13.19
2022-10-18T05:31:09.309Z,13.19
2022-10-18T05:33:36.298Z,13.17
2022-10-18T05:36:03.150Z,13.18
2022-10-18T05:38:29.769Z,13.17
2022-10-18T05:40:58.026Z,13.14
2022-10-18T05:43:27.543Z,13.14
2022-10-18T05:45:54.109Z,13.12
2022-10-18T05:48:20.643Z,13.11
2022-10-18T05:50:47.199Z,13.09
2022-10-18T05:53:35.302Z,13.09
2022-10-18T05:56:02.410Z,13.06
2022-10-18T05:58:29.151Z,13.05
2022-10-18T06:00:58.768Z,13.06
2022-10-18T06:03:25.280Z,13.08
2022-10-18T06:05:51.780Z,13.07
2022-10-18T06:08:18.306Z,13.07
2022-10-18T06:10:44.982Z,13.06
2022-10-18T06:13:12.850Z,13.07
2022-10-18T06:15:39.358Z,13.05
2022-10-18T06:18:05.861Z,13.05
2022-10-18T06:20:32.363Z,13.06
2022-10-18T06:22:58.857Z,13.05
2022-10-18T06:25:25.472Z,13.05
2022-10-18T06:27:52.024Z,13.07
2022-10-18T06:30:19.865Z,13.07
2022-10-18T06:32:46.485Z,13.05
2022-10-18T06:35:13.144Z,13.01
2022-10-18T06:37:39.778Z,13.01
2022-10-18T06:40:07.622Z,13.02
2022-10-18T06:42:34.554Z,13.03
2022-10-18T06:45:01.246Z,13.03
2022-10-18T06:47:29.135Z,13.05
2022-10-18T06:49:55.685Z,13.08
2022-10-18T06:52:22.227Z,13.03
2022-10-18T06:54:48.720Z,13.04
2022-10-18T06:57:15.336Z,13.06
2022-10-18T06:59:41.829Z,13.04
2022-10-18T07:02:09.441Z,13.04
2022-10-18T07:04:37.443Z,12.98
2022-10-18T07:07:03.960Z,13.00
2022-10-18T07:09:30.796Z,12.98
2022-10-18T07:11:57.287Z,12.99
2022-10-18T07:14:28.763Z,13.01
2022-10-18T07:16:58.018Z,13.05
2022-10-18T07:19:24.616Z,13.08
2022-10-18T07:21:52.478Z,13.11
2022-10-18T07:24:18.975Z,13.10
2022-10-18T07:26:45.521Z,13.15
2022-10-18T07:29:12.430Z,13.15
2022-10-18T07:31:39.276Z,13.15
2022-10-18T07:34:06.821Z,13.17
2022-10-18T07:36:33.887Z,13.16
2022-10-18T07:39:02.137Z,13.17
2022-10-18T07:41:28.654Z,13.18
2022-10-18T07:43:55.192Z,13.18
2022-10-18T07:46:22.496Z,13.17
2022-10-18T07:48:49.430Z,13.18
2022-10-18T07:51:16.943Z,13.18
2022-10-18T07:53:43.534Z,13.13
2022-10-18T07:56:13.722Z,13.18
2022-10-18T07:58:40.215Z,13.24
2022-10-18T08:01:08.467Z,13.24
2022-10-18T08:03:35.717Z,13.28
2022-10-18T08:06:03.551Z,13.27
2022-10-18T08:08:30.618Z,13.26
2022-10-18T08:11:02.500Z,13.31
2022-10-18T08:13:30.762Z,13.37
2022-10-18T08:16:00.001Z,13.38
2022-10-18T08:18:26.616Z,13.39
2022-10-18T08:20:53.132Z,13.35
2022-10-18T08:23:19.672Z,13.34
2022-10-18T08:25:46.154Z,13.35
2022-10-18T08:28:12.660Z,13.35
2022-10-18T08:30:40.539Z,13.34
2022-10-18T08:33:07.082Z,13.32
2022-10-18T08:35:33.631Z,13.32
2022-10-18T08:38:00.175Z,13.31
2022-10-18T08:40:27.764Z,13.29
2022-10-18T08:43:02.975Z,13.28
2022-10-18T08:45:42.094Z,13.29
2022-10-18T08:48:19.848Z,13.29
2022-10-18T08:50:46.871Z,13.29
2022-10-18T08:53:17.470Z,13.34
2022-10-18T08:55:48.800Z,13.32
2022-10-18T08:58:19.429Z,13.39
2022-10-18T09:00:54.506Z,13.40
2022-10-18T09:03:36.256Z,13.46
2022-10-18T09:06:17.561Z,13.50
2022-10-18T09:09:01.386Z,13.53
2022-10-18T09:11:44.303Z,13.54
2022-10-18T09:14:33.607Z,13.56
2022-10-18T09:17:10.378Z,13.57
2022-10-18T09:19:54.981Z,13.56
2022-10-18T09:22:29.068Z,13.54
2022-10-18T09:25:04.422Z,13.59
2022-10-18T09:27:41.109Z,13.60
2022-10-18T09:30:18.765Z,13.66
2022-10-18T09:32:51.289Z,13.75
2022-10-18T09:35:24.165Z,13.78
2022-10-18T09:37:54.133Z,13.87
2022-10-18T09:40:26.852Z,13.94
2022-10-18T09:42:58.262Z,13.91
2022-10-18T09:45:29.115Z,13.95
2022-10-18T09:48:05.529Z,14.03
2022-10-18T09:50:37.971Z,14.01
2022-10-18T09:53:12.867Z,14.13
2022-10-18T09:55:47.260Z,14.26
2022-10-18T09:58:14.771Z,14.37
2022-10-18T10:00:46.048Z,14.45
2022-10-18T10:03:13.085Z,14.52
2022-10-18T10:05:41.331Z,14.61
2022-10-18T10:08:07.929Z,14.67
2022-10-18T10:10:38.216Z,14.65
2022-10-18T10:13:07.212Z,14.64
2022-10-18T10:15:39.301Z,14.63
2022-10-18T10:18:20.304Z,14.62
2022-10-18T10:20:51.330Z,14.74
2022-10-18T10:23:21.351Z,14.70
2022-10-18T10:25:52.016Z,14.86
2022-10-18T10:28:21.731Z,14.80
2022-10-18T10:30:48.305Z,14.66
2022-10-18T10:33:33.769Z,14.71
2022-10-18T10:36:03.191Z,14.77
2022-10-18T10:38:31.191Z,14.87
2022-10-18T10:40:58.214Z,14.93
2022-10-18T10:43:42.801Z,14.98
2022-10-18T10:46:12.026Z,15.10
2022-10-18T10:48:47.916Z,15.17
2022-10-18T10:51:18.042Z,15.26
2022-10-18T10:53:50.335Z,15.23
2022-10-18T10:56:28.309Z,15.54
2022-10-18T10:58:58.268Z,15.77
2022-10-18T11:01:28.978Z,15.93
2022-10-18T11:03:58.138Z,16.04
2022-10-18T11:06:48.697Z,16.31
2022-10-18T11:09:33.798Z,16.56
2022-10-18T11:12:12.116Z,16.68
2022-10-18T11:14:44.835Z,16.69
2022-10-18T11:17:18.701Z,16.98
2022-10-18T11:19:59.087Z,17.24
2022-10-18T11:22:32.378Z,17.12
2022-10-18T11:24:59.147Z,17.22
2022-10-18T11:27:30.521Z,16.99
2022-10-18T11:30:14.275Z,17.08
2022-10-18T11:32:48.381Z,17.08
2022-10-18T11:35:32.267Z,17.83
2022-10-18T11:38:12.234Z,18.13
2022-10-18T11:40:54.367Z,18.35
2022-10-18T11:43:30.162Z,17.67
2022-10-18T11:46:09.912Z,17.79
2022-10-18T11:48:57.286Z,17.56
2022-10-18T11:51:38.596Z,17.65
2022-10-18T11:57:25.307Z,17.38
2022-10-18T12:00:03.098Z,17.35
2022-10-18T12:03:14.546Z,17.47
2022-10-18T12:05:44.776Z,17.89
2022-10-18T12:08:14.685Z,18.36
2022-10-18T12:11:04.023Z,18.75
2022-10-18T12:13:38.910Z,19.21
2022-10-18T12:16:08.222Z,19.75
2022-10-18T12:18:36.752Z,20.00
2022-10-18T12:21:06.248Z,20.22
2022-10-18T12:23:42.202Z,20.17
2022-10-18T12:26:11.438Z,19.63
2022-10-18T12:28:53.809Z,20.33
2022-10-18T12:31:24.640Z,20.57
2022-10-18T12:33:56.673Z,21.21
2022-10-18T12:36:41.736Z,22.04
2022-10-18T12:39:15.656Z,21.91
2022-10-18T12:41:47.318Z,22.35
2022-10-18T12:44:20.157Z,21.82
2022-10-18T12:46:49.780Z,21.31
2022-10-18T12:49:21.770Z,21.49
2022-10-18T12:51:54.066Z,21.29
2022-10-18T12:54:25.585Z,20.71
2022-10-18T12:56:53.511Z,19.92
2022-10-18T12:59:49.960Z,19.49
2022-10-18T13:02:37.700Z,19.28
2022-10-18T13:05:48.882Z,19.41
2022-10-18T13:08:37.637Z,19.66
2022-10-18T13:11:28.223Z,19.67
2022-10-18T13:14:20.986Z,19.70
2022-10-18T13:16:53.222Z,19.50
2022-10-18T13:19:25.896Z,19.38
2022-10-18T13:22:04.358Z,19.22
2022-10-18T13:24:35.487Z,19.07
2022-10-18T13:27:36.588Z,19.07
2022-10-18T13:30:27.328Z,19.05
2022-10-18T13:33:02.247Z,18.86
2022-10-18T13:35:52.529Z,18.72
2022-10-18T13:38:59.727Z,18.68
2022-10-18T13:41:31.318Z,18.52
2022-10-18T13:44:23.933Z,18.57
2022-10-18T13:47:32.066Z,18.42
2022-10-18T13:53:41.927Z,18.77
2022-10-18T13:56:33.161Z,19.85
2022-10-18T13:59:42.476Z,20.52
2022-10-18T14:02:50.324Z,20.94
2022-10-18T14:05:32.127Z,21.24
2022-10-18T14:08:05.774Z,20.69
2022-10-18T14:11:00.925Z,20.00
2022-10-18T14:13:36.433Z,19.52
2022-10-18T14:16:09.118Z,19.11
2022-10-18T14:18:42.411Z,18.81
2022-10-18T14:21:21.970Z,18.73
2022-10-18T14:23:50.599Z,18.76
2022-10-18T14:26:18.956Z,18.87
2022-10-18T14:29:01.509Z,19.01
2022-10-18T14:31:28.541Z,19.47
2022-10-18T14:33:58.909Z,19.46
2022-10-18T14:36:29.251Z,19.16
2022-10-18T14:38:57.407Z,19.16
2022-10-18T14:41:25.685Z,19.00
2022-10-18T14:43:53.922Z,18.75
2022-10-18T14:46:22.885Z,18.56
2022-10-18T14:48:54.803Z,18.36
2022-10-18T14:51:22.965Z,18.23
2022-10-18T14:53:50.288Z,17.99
2022-10-18T14:56:23.993Z,17.87
2022-10-18T14:58:51.199Z,17.78
2022-10-18T15:01:20.091Z,17.71
2022-10-18T15:03:47.863Z,17.65
2022-10-18T15:06:17.948Z,17.55
2022-10-18T15:08:47.517Z,17.42
2022-10-18T15:11:15.767Z,17.33
2022-10-18T15:13:48.175Z,17.17
2022-10-18T15:16:16.929Z,17.06
2022-10-18T15:18:44.009Z,16.98
2022-10-18T15:21:21.676Z,16.89
2022-10-18T15:23:50.346Z,16.85
2022-10-18T15:26:23.044Z,16.77
2022-10-18T15:28:51.635Z,16.67
2022-10-18T15:31:24.839Z,16.63
2022-10-18T15:33:52.310Z,16.52
2022-10-18T15:36:26.780Z,16.50
2022-10-18T15:39:04.021Z,16.40
2022-10-18T15:41:37.162Z,16.49
2022-10-18T15:44:11.667Z,16.39
2022-10-18T15:46:42.600Z,16.32
2022-10-18T15:49:48.095Z,16.32
2022-10-18T15:52:37.730Z,16.22
2022-10-18T15:55:37.835Z,16.18
2022-10-18T15:58:11.134Z,16.15
2022-10-18T16:00:37.707Z,16.05
2022-10-18T16:03:04.335Z,15.90
2022-10-18T16:05:30.861Z,15.82
2022-10-18T16:07:57.484Z,15.70
2022-10-18T16:10:23.976Z,15.62
2022-10-18T16:12:50.577Z,15.59
2022-10-18T16:15:18.953Z,15.49
2022-10-18T16:17:45.698Z,15.41
2022-10-18T16:20:18.702Z,15.39
2022-10-18T16:22:45.348Z,15.33
2022-10-18T16:25:11.850Z,15.32
2022-10-18T16:27:38.597Z,15.28
2022-10-18T16:30:12.217Z,15.19
2022-10-18T16:32:40.211Z,15.11
2022-10-18T16:35:07.257Z,15.00
2022-10-18T16:37:33.915Z,14.96
2022-10-18T16:40:00.421Z,14.93
2022-10-18T16:42:27.038Z,14.83
2022-10-18T16:44:53.782Z,14.75
2022-10-18T16:47:20.452Z,14.67
2022-10-18T16:49:48.334Z,14.62
2022-10-18T16:52:14.863Z,14.57
2022-10-18T16:54:41.359Z,14.58
2022-10-18T16:57:09.147Z,14.54
2022-10-18T16:59:35.642Z,14.41
2022-10-18T17:02:02.248Z,14.28
2022-10-18T17:04:28.760Z,14.19
2022-10-18T17:06:57.675Z,14.16
2022-10-18T17:09:24.219Z,14.17
2022-10-18T17:11:50.760Z,14.05
2022-10-18T17:14:17.260Z,14.01
2022-10-18T17:16:46.626Z,13.95
2022-10-18T17:19:16.755Z,13.72
2022-10-18T17:21:43.380Z,13.57
2022-10-18T17:24:11.284Z,13.47
2022-10-18T17:26:38.041Z,13.33
2022-10-18T17:29:06.500Z,13.20
2022-10-18T17:31:33.574Z,13.12
2022-10-18T17:34:00.366Z,13.18
2022-10-18T17:36:26.894Z,13.26
2022-10-18T17:38:53.826Z,13.23
2022-10-18T17:41:22.115Z,13.31
2022-10-18T17:43:48.927Z,13.27
2022-10-18T17:46:15.998Z,13.16
2022-10-18T17:48:42.639Z,13.03
2022-10-18T17:51:10.550Z,12.93
2022-10-18T17:53:37.114Z,12.96
2022-10-18T17:56:04.768Z,12.96
2022-10-18T17:58:32.677Z,12.93
2022-10-18T18:01:08.908Z,12.83
2022-10-18T18:03:35.628Z,12.78
2022-10-18T18:06:12.171Z,12.58
2022-10-18T18:08:38.713Z,12.55
2022-10-18T18:11:05.501Z,12.49
2022-10-18T18:13:33.453Z,12.45
2022-10-18T18:16:10.524Z,12.44
2022-10-18T18:18:37.313Z,12.40
2022-10-18T18:21:03.872Z,12.32
2022-10-18T18:23:30.455Z,12.21
2022-10-18T18:25:57.678Z,12.07
2022-10-18T18:28:24.264Z,11.94
2022-10-18T18:30:52.155Z,11.72
2022-10-18T18:33:18.741Z,11.57
2022-10-18T18:35:54.410Z,11.43
2022-10-18T18:38:20.947Z,11.28
2022-10-18T18:40:47.557Z,11.18
2022-10-18T18:43:28.671Z,11.07
2022-10-18T18:45:56.551Z,10.95
2022-10-18T18:48:23.104Z,10.88
2022-10-18T18:50:49.663Z,10.83
2022-10-18T18:53:16.338Z,10.74
2022-10-18T18:55:42.909Z,10.70
2022-10-18T18:58:09.709Z,10.65
2022-10-18T19:00:41.702Z,10.58
2022-10-18T19:03:12.515Z,10.51
2022-10-18T19:05:39.171Z,10.47
2022-10-18T19:08:06.272Z,10.41
2022-10-18T19:10:32.916Z,10.34
2022-10-18T19:12:59.540Z,10.31
2022-10-18T19:15:26.238Z,10.20
2022-10-18T19:17:52.807Z,10.17
2022-10-18T19:20:20.915Z,10.08
2022-10-18T19:22:47.443Z,9.99
2022-10-18T19:25:14.272Z,9.95
2022-10-18T19:27:40.783Z,9.88
2022-10-18T19:30:10.682Z,9.83
2022-10-18T19:32:37.341Z,9.79
2022-10-18T19:35:04.310Z,9.75
2022-10-18T19:37:32.521Z,9.69
2022-10-18T19:39:59.324Z,9.63
2022-10-18T19:42:27.540Z,9.59
2022-10-18T19:44:56.977Z,9.54
2022-10-18T19:47:23.520Z,9.50
2022-10-18T19:49:50.044Z,9.45
2022-10-18T19:52:16.579Z,9.41
2022-10-18T19:54:44.596Z,9.36
2022-10-18T19:57:11.109Z,9.30
2022-10-18T19:59:37.849Z,9.22
2022-10-18T20:02:04.402Z,9.20
2022-10-18T20:04:31.267Z,9.13
2022-10-18T20:06:57.911Z,9.09
2022-10-18T20:09:24.419Z,9.03
2022-10-18T20:11:52.315Z,9.00
2022-10-18T20:14:18.805Z,8.99
2022-10-18T20:16:45.501Z,8.95
2022-10-18T20:19:12.017Z,8.90
2022-10-18T20:21:38.683Z,8.82
2022-10-18T20:24:06.205Z,8.79
2022-10-18T20:26:33.305Z,8.72
2022-10-18T20:29:01.308Z,8.68
2022-10-18T20:31:29.378Z,8.63
2022-10-18T20:33:57.399Z,8.60
2022-10-18T20:36:24.986Z,8.53
2022-10-18T20:38:51.758Z,8.47
2022-10-18T20:41:21.495Z,8.43
2022-10-18T20:43:51.165Z,8.40
2022-10-18T20:46:19.113Z,8.35
2022-10-18T20:48:45.725Z,8.32
2022-10-18T20:51:12.741Z,8.29
2022-10-18T20:53:40.662Z,8.29
2022-10-18T20:56:09.243Z,8.26
2022-10-18T20:58:36.529Z,8.25
2022-10-18T21:01:07.745Z,8.22
2022-10-18T21:03:37.728Z,8.23
2022-10-18T21:06:11.973Z,8.23
2022-10-18T21:08:39.303Z,8.22
2022-10-18T21:11:06.113Z,8.13
2022-10-18T21:13:32.800Z,8.11
2022-10-18T21:16:00.422Z,8.05
2022-10-18T21:18:28.124Z,8.01
2022-10-18T21:21:05.976Z,7.98
2022-10-18T21:23:33.430Z,7.97
2022-10-18T21:25:59.956Z,7.93
2022-10-18T21:28:26.540Z,7.87
2022-10-18T21:30:53.100Z,7.81
2022-10-18T21:33:19.673Z,7.76
2022-10-18T21:35:46.196Z,7.69
2022-10-18T21:38:14.051Z,7.63
2022-10-18T21:40:40.596Z,7.59
2022-10-18T21:43:07.138Z,7.53
2022-10-18T21:45:33.744Z,7.48
2022-10-18T21:48:00.315Z,7.43
2022-10-18T21:50:26.879Z,7.40
2022-10-18T21:52:53.379Z,7.40
2022-10-18T21:55:21.294Z,7.35
2022-10-18T21:57:47.823Z,7.31
2022-10-18T22:00:16.066Z,7.27
2022-10-18T22:02:42.576Z,7.22
2022-10-18T22:05:11.338Z,7.23
2022-10-18T22:07:38.779Z,7.21
2022-10-18T22:10:06.124Z,7.18
2022-10-18T22:12:33.996Z,7.16
2022-10-18T22:15:00.559Z,7.13
2022-10-18T22:17:27.099Z,7.09
2022-10-18T22:19:53.600Z,7.06
2022-10-18T22:22:20.162Z,7.02
2022-10-18T22:24:48.067Z,6.94
2022-10-18T22:27:14.708Z,6.85
2022-10-18T22:29:42.618Z,6.84
2022-10-18T22:32:09.248Z,6.82
2022-10-18T22:34:35.772Z,6.80
2022-10-18T22:37:02.323Z,6.79
2022-10-18T22:39:28.932Z,6.79
2022-10-18T22:41:55.480Z,6.77
2022-10-18T22:44:22.055Z,6.74
2022-10-18T22:46:49.956Z,6.73
2022-10-18T22:49:16.492Z,6.72
2022-10-18T22:51:43.055Z,6.72
2022-10-18T22:54:10.103Z,6.75
2022-10-18T22:56:36.646Z,6.78
2022-10-18T22:59:03.451Z,6.83
2022-10-18T23:01:30.081Z,6.88
2022-10-18T23:04:00.576Z,6.91
2022-10-18T23:06:29.230Z,6.93
2022-10-18T23:08:59.475Z,6.95
2022-10-18T23:11:27.130Z,7.01
2022-10-18T23:13:54.466Z,7.05
2022-10-18T23:16:21.418Z,7.11
2022-10-18T23:18:49.722Z,7.14
2022-10-18T23:21:18.444Z,7.17
2022-10-18T23:23:45.047Z,7.16
2022-10-18T23:26:14.008Z,7.19
2022-10-18T23:28:42.710Z,7.25
2022-10-18T23:31:11.860Z,7.27
2022-10-18T23:33:39.337Z,7.30
2022-10-18T23:36:07.726Z,7.31
2022-10-18T23:38:37.379Z,7.32
2022-10-18T23:41:04.142Z,7.31
2022-10-18T23:43:30.687Z,7.34
2022-10-18T23:45:57.271Z,7.34
2022-10-18T23:48:24.227Z,7.35
2022-10-18T23:50:50.961Z,7.32
2022-10-18T23:53:17.891Z,7.28
2022-10-18T23:55:52.957Z,7.26
2022-10-18T23:58:19.508Z,7.23
